Flight Track Log - Related Links

Times and Time Zones

All times are in EDT time to prevent confusion due to time zone crossing. See the CMP472 flight status page for this flight to view local times or setup timezone preferences in your user account.

Time Position Orientation Groundspeed Altitude Reporting Facility
EDT Latitude Longitude Course Direction KTS MPH feet Rate Location/Type
Fri 02:27:42 PM 9.0910 -79.3690 28° Northeast 181 208 1,500  Level FlightAware ADS-B
Fri 02:28:12 PM 9.1140 -79.3570 27° Northeast 188 216 2,600 2,267 Climbing FlightAware ADS-B
Fri 02:28:27 PM 9.1250 -79.3500 32° Northeast 180 207 3,200 1,950 Climbing FlightAware ADS-B
Fri 02:28:52 PM 9.1440 -79.3380 32° Northeast 204 235 3,900 1,418 Climbing FlightAware ADS-B
Fri 02:29:22 PM 9.1720 -79.3210 31° Northeast 244 281 4,500 1,418 Climbing FlightAware ADS-B
Fri 02:29:47 PM 9.1980 -79.3070 28° Northeast 262 302 5,200 1,950 Climbing FlightAware ADS-B
Fri 02:30:02 PM 9.2160 -79.3000 21° North 282 325 5,800 2,667 Climbing FlightAware ADS-B
Fri 02:30:32 PM 9.2520 -79.3090 346° North 283 326 7,200 2,800 Climbing FlightAware ADS-B
Fri 02:30:47 PM 9.2650 -79.3250 309° West 282 325 7,900 2,700 Climbing FlightAware ADS-B
Fri 02:31:12 PM 9.2780 -79.3560 293° West 285 328 9,000 2,550 Climbing FlightAware ADS-B
Fri 02:31:27 PM 9.2860 -79.3740 294° West 288 331 9,600 1,855 Climbing FlightAware ADS-B
Fri 02:32:07 PM 9.3080 -79.4250 294° West 314 361 10,700 1,341 Climbing FlightAware ADS-B
Fri 02:32:52 PM 9.3370 -79.4900 294° West 356 410 11,500 1,553 Climbing FlightAware ADS-B
Fri 02:33:32 PM 9.3580 -79.5560 288° West 367 422 12,900 2,188 Climbing FlightAware ADS-B
Fri 02:34:17 PM 9.3810 -79.6310 287° West 372 428 14,600 2,188 Climbing FlightAware ADS-B
Fri 02:34:57 PM 9.4010 -79.6990 287° West 382 440 16,000 1,875 Climbing FlightAware ADS-B
Fri 02:35:37 PM 9.4220 -79.7680 287° West 390 449 17,100 1,765 Climbing FlightAware ADS-B
Fri 02:36:22 PM 9.4460 -79.8480 287° West 396 456 18,500 1,694 Climbing FlightAware ADS-B
Fri 02:37:02 PM 9.4750 -79.9180 293° West 401 461 19,500 1,553 Climbing FlightAware ADS-B
Fri 02:37:47 PM 9.5110 -79.9960 295° West 414 476 20,700 1,624 Climbing FlightAware ADS-B
Fri 02:38:27 PM 9.5440 -80.0680 295° West 416 479 21,800 1,425 Climbing FlightAware ADS-B
Fri 02:39:07 PM 9.5760 -80.1390 295° West 426 490 22,600 825 Climbing FlightAware ADS-B
Fri 02:39:47 PM 9.6040 -80.2010 295° West 427 491 22,900 1,341 Climbing FlightAware ADS-B
Fri 02:40:32 PM 9.6490 -80.2970 295° West 435 501 24,500 1,765 Climbing FlightAware ADS-B
Fri 02:41:12 PM 9.6820 -80.3710 294° West 433 498 25,400 1,271 Climbing FlightAware ADS-B
Fri 02:41:57 PM 9.7170 -80.4460 295° West 434 499 26,300 1,059 Climbing FlightAware ADS-B
Fri 02:42:37 PM 9.7540 -80.5270 295° West 441 507 26,900 635 Climbing FlightAware ADS-B
Fri 02:43:22 PM 9.7870 -80.6040 294° West 444 511 27,200 212 Climbing FlightAware ADS-B
Fri 02:44:02 PM 9.8150 -80.6700 293° West 444 511 27,200  Level FlightAware ADS-B
Fri 02:44:42 PM 9.8420 -80.7350 293° West 444 511 27,200  Level FlightAware ADS-B
Fri 02:45:22 PM 9.8690 -80.8000 293° West 444 511 27,200  Level FlightAware ADS-B
Fri 02:46:02 PM 9.8970 -80.8650 294° West 444 511 27,200  Level FlightAware ADS-B
Fri 02:46:42 PM 9.9240 -80.9310 293° West 444 511 27,200 113 Level FlightAware ADS-B
Fri 02:49:00 PM 10.0835 -81.1184 302° West  Level Estimated
Fri 02:50:00 PM 10.1417 -81.2084 303° West  Level FlightAware Approximate
Fri 02:51:00 PM 10.1998 -81.2985 303° West  Level FlightAware Approximate
Fri 02:52:00 PM 10.2580 -81.3886 303° West  Level FlightAware Approximate
Fri 02:53:00 PM 10.3161 -81.4788 303° West  Level FlightAware Approximate
Fri 02:54:00 PM 10.3742 -81.5690 303° West  Level FlightAware Approximate
Fri 02:55:00 PM 10.4322 -81.6592 303° West  Level FlightAware Approximate
Fri 02:56:00 PM 10.4903 -81.7495 303° West  Level FlightAware Approximate
Fri 02:57:00 PM 10.5483 -81.8398 303° West  Level FlightAware Approximate
Fri 02:58:00 PM 10.6062 -81.9301 303° West  Level FlightAware Approximate
Fri 02:59:00 PM 10.6642 -82.0205 303° West  Level FlightAware Approximate
Fri 03:00:00 PM 10.7221 -82.1108 303° West  Level FlightAware Approximate
Fri 03:01:00 PM 10.7801 -82.2013 303° West  Level FlightAware Approximate
Fri 03:02:00 PM 10.8379 -82.2917 303° West  Level FlightAware Approximate
Fri 03:03:00 PM 10.8958 -82.3822 303° West  Level FlightAware Approximate
Fri 03:04:00 PM 10.9536 -82.4728 303° West  Level FlightAware Approximate
Fri 03:05:00 PM 11.0114 -82.5633 303° West  Level FlightAware Approximate
Fri 03:06:00 PM 11.0707 -82.6568 301° West  Level FlightAware Approximate
Fri 03:07:00 PM 11.1259 -82.7491 301° West  Level FlightAware Approximate
Fri 03:08:00 PM 11.1810 -82.8414 301° West  Level FlightAware Approximate
Fri 03:09:00 PM 11.2361 -82.9338 301° West  Level FlightAware Approximate
Fri 03:10:00 PM 11.2912 -83.0262 301° West  Level FlightAware Approximate
Fri 03:11:00 PM 11.3463 -83.1186 301° West  Level FlightAware Approximate
Fri 03:12:00 PM 11.4013 -83.2111 301° West  Level FlightAware Approximate
Fri 03:13:00 PM 11.4563 -83.3036 301° West  Level FlightAware Approximate
Fri 03:14:00 PM 11.5112 -83.3961 301° West  Level FlightAware Approximate
Fri 03:15:00 PM 11.5662 -83.4887 301° West  Level FlightAware Approximate
Fri 03:16:00 PM 11.6211 -83.5813 301° West  Level FlightAware Approximate
Fri 03:17:00 PM 11.6760 -83.6740 301° West  Level FlightAware Approximate
Fri 03:18:00 PM 11.7308 -83.7667 301° West  Level FlightAware Approximate
Fri 03:19:00 PM 11.7856 -83.8594 301° West  Level FlightAware Approximate
Fri 03:20:00 PM 11.8404 -83.9522 301° West  Level FlightAware Approximate
Fri 03:21:00 PM 11.8952 -84.0450 301° West  Level FlightAware Approximate
Fri 03:22:00 PM 11.9499 -84.1378 301° West  Level FlightAware Approximate
Fri 03:23:00 PM 12.0046 -84.2307 301° West  Level FlightAware Approximate
Fri 03:24:00 PM 12.0592 -84.3236 301° West  Level FlightAware Approximate
Fri 03:25:00 PM 12.1139 -84.4165 301° West  Level FlightAware Approximate
Fri 03:26:00 PM 12.1685 -84.5095 301° West  Level FlightAware Approximate
Fri 03:27:00 PM 12.2231 -84.6026 301° West  Level FlightAware Approximate
Fri 03:28:00 PM 12.2776 -84.6956 301° West  Level FlightAware Approximate
Fri 03:29:00 PM 12.3321 -84.7887 301° West  Level FlightAware Approximate
Fri 03:30:00 PM 12.3866 -84.8819 301° West  Level FlightAware Approximate
Fri 03:31:00 PM 12.4413 -84.9749 301° West  Level FlightAware Approximate
Fri 03:32:00 PM 12.4962 -85.0678 301° West  Level FlightAware Approximate
Fri 03:33:00 PM 12.5511 -85.1608 301° West  Level FlightAware Approximate
Fri 03:34:00 PM 12.6060 -85.2537 301° West  Level FlightAware Approximate
Fri 03:35:00 PM 12.6608 -85.3467 301° West  Level FlightAware Approximate
Fri 03:36:00 PM 12.7156 -85.4398 301° West  Level FlightAware Approximate
Fri 03:37:00 PM 12.7704 -85.5329 301° West  Level FlightAware Approximate
Fri 03:38:00 PM 12.8251 -85.6261 301° West  Level FlightAware Approximate
Fri 03:39:00 PM 12.8798 -85.7192 301° West  Level FlightAware Approximate
Fri 03:40:00 PM 12.9345 -85.8124 301° West  Level FlightAware Approximate
Fri 03:41:00 PM 12.9891 -85.9057 301° West  Level FlightAware Approximate
Fri 03:42:00 PM 13.0437 -85.9990 301° West  Level FlightAware Approximate
Fri 03:43:00 PM 13.0983 -86.0924 301° West  Level FlightAware Approximate
Fri 03:44:00 PM 13.1528 -86.1858 301° West  Level FlightAware Approximate
Fri 03:45:00 PM 13.2073 -86.2792 301° West  Level FlightAware Approximate
Fri 03:46:00 PM 13.2618 -86.3727 301° West  Level FlightAware Approximate
Fri 03:46:22 PM 13.7020 -87.4090 301° West 442 509 34,000  Level FlightAware ADS-B
Fri 03:47:00 PM 13.3162 -86.4662 301° West  Level FlightAware Approximate
Fri 03:47:02 PM 13.7460 -87.4820 302° West 448 516 34,000  Level FlightAware ADS-B
Fri 03:47:47 PM 13.7970 -87.5650 302° West 449 517 34,000  Level FlightAware ADS-B
Fri 03:48:27 PM 13.8420 -87.6370 303° West 451 519 34,000  Level FlightAware ADS-B
Fri 03:49:12 PM 13.8910 -87.7180 302° West 452 520 34,000  Level FlightAware ADS-B
Fri 03:49:52 PM 13.9360 -87.7920 302° West 452 520 34,000  Level FlightAware ADS-B
Fri 03:50:32 PM 13.9800 -87.8640 302° West 452 520 34,000  Level FlightAware ADS-B
Fri 03:51:17 PM 14.0310 -87.9480 302° West 450 518 34,000  Level FlightAware ADS-B
Fri 03:51:57 PM 14.0740 -88.0190 302° West 445 512 34,000  Level FlightAware ADS-B
Fri 03:52:37 PM 14.1190 -88.0930 302° West 446 513 34,000  Level FlightAware ADS-B
Fri 03:53:22 PM 14.1690 -88.1750 302° West 444 511 34,000  Level FlightAware ADS-B
Fri 03:54:02 PM 14.2120 -88.2450 302° West 442 509 34,000  Level FlightAware ADS-B
Fri 03:54:47 PM 14.2620 -88.3280 302° West 443 510 34,000  Level FlightAware ADS-B
Fri 03:55:27 PM 14.3050 -88.3990 302° West 442 509 34,000  Level FlightAware ADS-B
Fri 03:56:12 PM 14.3550 -88.4820 302° West 443 510 34,000  Level FlightAware ADS-B
Fri 03:56:52 PM 14.3980 -88.5530 302° West 441 507 34,000  Level FlightAware ADS-B
Fri 03:57:32 PM 14.4410 -88.6250 302° West 442 509 34,000  Level FlightAware ADS-B
Fri 03:58:17 PM 14.4910 -88.7070 302° West 442 509 34,000  Level FlightAware ADS-B
Fri 03:58:57 PM 14.5350 -88.7800 302° West 442 509 34,000  Level FlightAware ADS-B
Fri 03:59:42 PM 14.5840 -88.8610 302° West 442 509 34,000  Level FlightAware ADS-B
Fri 04:00:22 PM 14.6280 -88.9340 302° West 443 510 34,000 150 Level FlightAware ADS-B
Fri 04:01:02 PM 14.6710 -89.0060 302° West 443 510 34,200 706 Climbing FlightAware ADS-B
Fri 04:01:47 PM 14.7200 -89.0870 302° West 440 506 35,000 847 Climbing FlightAware ADS-B
Fri 04:02:27 PM 14.7630 -89.1590 302° West 440 506 35,400 635 Climbing FlightAware ADS-B
Fri 04:03:12 PM 14.8120 -89.2410 302° West 442 509 35,900 424 Climbing FlightAware ADS-B
Fri 04:03:52 PM 14.8620 -89.3070 308° West 446 513 36,000 71 Climbing FlightAware ADS-B
Fri 04:04:37 PM 14.9270 -89.3780 313° West 439 505 36,000  Level FlightAware ADS-B
Fri 04:05:17 PM 14.9820 -89.4410 312° West 439 505 36,000  Level FlightAware ADS-B
Fri 04:05:57 PM 15.0360 -89.5030 312° West 438 504 36,000  Level FlightAware ADS-B
Fri 04:06:42 PM 15.0980 -89.5750 312° West 437 503 36,000  Level FlightAware ADS-B
Fri 04:07:22 PM 15.1520 -89.6370 312° West 442 509 36,000  Level FlightAware ADS-B
Fri 04:08:07 PM 15.2140 -89.7090 312° West 439 505 36,000  Level FlightAware ADS-B
Fri 04:08:47 PM 15.2670 -89.7710 312° West 439 505 36,000  Level FlightAware ADS-B
Fri 04:09:27 PM 15.3220 -89.8360 311° West 438 504 36,000  Level FlightAware ADS-B
Fri 04:10:12 PM 15.3780 -89.9110 308° West 431 496 36,000  Level FlightAware ADS-B
Fri 04:10:52 PM 15.4260 -89.9770 307° West 432 497 36,000  Level FlightAware ADS-B
Fri 04:11:32 PM 15.4730 -90.0470 305° West 432 497 36,000  Level FlightAware ADS-B
Fri 04:12:17 PM 15.5250 -90.1230 305° West 431 496 36,000  Level FlightAware ADS-B
Fri 04:12:57 PM 15.5720 -90.1920 305° West 432 497 36,000  Level FlightAware ADS-B
Fri 04:13:37 PM 15.6200 -90.2600 306° West 438 504 36,000  Level FlightAware ADS-B
Fri 04:14:17 PM 15.6650 -90.3240 306° West 439 505 36,000  Level FlightAware ADS-B
Fri 04:15:07 PM 15.7250 -90.4100 306° West 441 507 36,000  Level FlightAware ADS-B
Fri 04:16:02 PM 15.7940 -90.5050 307° West 439 505 36,000  Level FlightAware ADS-B
Fri 04:16:42 PM 15.8450 -90.5740 308° West 440 506 36,000  Level FlightAware ADS-B
Fri 04:17:27 PM 15.8950 -90.6450 306° West 440 506 36,000  Level FlightAware ADS-B
Fri 04:18:07 PM 15.9360 -90.7040 306° West 440 506 36,000  Level FlightAware ADS-B
Fri 04:18:47 PM 15.9770 -90.7620 306° West 440 506 36,000  Level FlightAware ADS-B
Fri 04:19:27 PM 16.0170 -90.8200 306° West 440 506 36,000  Level FlightAware ADS-B
Fri 04:20:07 PM 16.0580 -90.8780 306° West 440 506 36,000  Level FlightAware ADS-B
Fri 04:20:47 PM 16.0990 -90.9370 306° West 440 506 36,000  Level FlightAware ADS-B
Fri 04:21:37 PM 16.1500 -91.0090 306° West 440 506 36,000  Level FlightAware ADS-B
Fri 04:22:17 PM 16.1900 -91.0680 305° West 440 506 36,000  Level FlightAware ADS-B
Fri 04:22:57 PM 16.2310 -91.1260 306° West 440 506 36,000  Level FlightAware ADS-B
Fri 04:23:37 PM 16.2720 -91.1840 306° West 440 506 36,000  Level FlightAware ADS-B
Fri 04:24:27 PM 16.3230 -91.2570 306° West 440 506 36,000  Level FlightAware ADS-B
Fri 04:25:07 PM 16.3630 -91.3160 305° West 440 506 36,000  Level FlightAware ADS-B
Fri 04:25:47 PM 16.4040 -91.3740 306° West 440 506 36,000  Level FlightAware ADS-B
Fri 04:26:27 PM 16.4450 -91.4320 306° West 440 506 36,000  Level FlightAware ADS-B
Fri 04:29:00 PM 16.6220 -91.6452 311° West  Level Estimated
Fri 04:30:00 PM 16.6914 -91.7290 311° West  Level Estimated
Fri 04:31:00 PM 16.7607 -91.8128 311° West  Level Estimated
Fri 04:32:00 PM 16.8300 -91.8966 311° West  Level Estimated
Fri 04:33:00 PM 16.8993 -91.9805 311° West  Level Estimated
Fri 04:34:00 PM 16.9685 -92.0645 311° West  Level Estimated
Fri 04:35:00 PM 17.0377 -92.1486 311° West  Level Estimated
Fri 04:36:00 PM 17.1068 -92.2327 311° West  Level Estimated
Fri 04:37:00 PM 17.1759 -92.3168 311° West  Level Estimated
Fri 04:38:00 PM 17.2450 -92.4010 311° West  Level Estimated
Fri 04:39:00 PM 17.3141 -92.4853 311° West  Level Estimated
Fri 04:40:00 PM 17.3831 -92.5697 311° West  Level Estimated
Fri 04:41:00 PM 17.4521 -92.6541 311° West  Level Estimated
Fri 04:42:00 PM 17.5210 -92.7386 311° West  Level Estimated
Fri 04:43:00 PM 17.5899 -92.8231 311° West  Level Estimated
Fri 04:44:00 PM 17.6588 -92.9077 311° West  Level Estimated
Fri 04:45:00 PM 17.7276 -92.9924 310° West  Level Estimated
Fri 04:46:00 PM 17.7964 -93.0771 310° West  Level Estimated
Fri 04:47:00 PM 17.8652 -93.1619 310° West  Level Estimated
Fri 04:48:00 PM 17.9339 -93.2468 310° West  Level Estimated
Fri 04:49:00 PM 18.0026 -93.3317 310° West  Level Estimated
Fri 04:50:00 PM 18.0713 -93.4167 310° West  Level Estimated
Fri 04:51:00 PM 18.1399 -93.5018 310° West  Level Estimated
Fri 04:52:00 PM 18.2085 -93.5870 310° West  Level Estimated
Fri 04:53:00 PM 18.2770 -93.6721 310° West  Level Estimated
Fri 04:54:00 PM 18.3455 -93.7574 310° West  Level Estimated
Fri 04:55:00 PM 18.4140 -93.8428 310° West  Level Estimated
Fri 04:56:00 PM 18.4824 -93.9282 310° West  Level Estimated
Fri 04:57:00 PM 18.5508 -94.0136 310° West  Level Estimated
Fri 04:58:00 PM 18.6192 -94.0992 310° West  Level Estimated
Fri 04:59:00 PM 18.6875 -94.1848 310° West  Level Estimated
Fri 05:00:00 PM 18.7557 -94.2705 310° West  Level Estimated
Fri 05:01:00 PM 18.8240 -94.3562 310° West  Level Estimated
Fri 05:02:00 PM 18.8922 -94.4420 310° West  Level Estimated
Fri 05:03:00 PM 18.9603 -94.5279 310° West  Level Estimated
Fri 05:04:00 PM 19.0284 -94.6139 310° West  Level Estimated
Fri 05:05:00 PM 19.0965 -94.6999 310° West  Level Estimated
Fri 05:06:00 PM 19.1646 -94.7860 310° West  Level Estimated
Fri 05:07:00 PM 19.2325 -94.8722 310° West  Level Estimated
Fri 05:08:00 PM 19.3005 -94.9584 310° West  Level Estimated
Fri 05:09:00 PM 19.3684 -95.0447 310° West  Level Estimated
Fri 05:10:00 PM 19.4363 -95.1311 310° West  Level Estimated
Fri 05:11:00 PM 19.5041 -95.2176 310° West  Level Estimated
Fri 05:12:00 PM 19.5719 -95.3041 310° West  Level Estimated
Fri 05:13:00 PM 19.6397 -95.3907 310° West  Level Estimated
Fri 05:14:00 PM 19.7074 -95.4774 310° West  Level Estimated
Fri 05:15:00 PM 19.7750 -95.5641 310° West  Level Estimated
Fri 05:16:00 PM 19.8427 -95.6510 310° West  Level Estimated
Fri 05:17:00 PM 19.9102 -95.7379 310° West  Level Estimated
Fri 05:18:00 PM 19.9778 -95.8248 310° West  Level Estimated
Fri 05:19:00 PM 20.0453 -95.9119 310° West  Level Estimated
Fri 05:20:00 PM 20.1127 -95.9990 310° West  Level Estimated
Fri 05:21:00 PM 20.1802 -96.0862 309° West  Level Estimated
Fri 05:22:00 PM 20.2475 -96.1735 309° West  Level Estimated
Fri 05:23:00 PM 20.3149 -96.2608 309° West  Level Estimated
Fri 05:24:00 PM 20.3821 -96.3482 309° West  Level Estimated
Fri 05:25:00 PM 20.4494 -96.4357 309° West  Level Estimated
Fri 05:26:00 PM 20.5166 -96.5233 309° West  Level Estimated
Fri 05:27:00 PM 20.5837 -96.6110 309° West  Level Estimated
Fri 05:28:00 PM 20.6508 -96.6987 309° West  Level Estimated
Fri 05:29:00 PM 20.7179 -96.7865 309° West  Level Estimated
Fri 05:30:00 PM 20.7849 -96.8744 309° West  Level Estimated
Fri 05:31:00 PM 20.8519 -96.9624 309° West  Level Estimated
Fri 05:32:00 PM 20.9188 -97.0504 309° West  Level Estimated
Fri 05:33:00 PM 20.9857 -97.1385 309° West  Level Estimated
Fri 05:34:00 PM 21.0525 -97.2267 309° West  Level Estimated
Fri 05:35:00 PM 21.1193 -97.3150 309° West  Level Estimated
Fri 05:36:00 PM 21.1861 -97.4034 309° West  Level Estimated
Fri 05:37:00 PM 21.2528 -97.4918 309° West  Level Estimated
Fri 05:38:00 PM 21.3194 -97.5803 309° West  Level Estimated
Fri 05:39:00 PM 21.3860 -97.6689 309° West  Level Estimated
Fri 05:40:00 PM 21.4526 -97.7576 309° West  Level Estimated
Fri 05:41:00 PM 21.5191 -97.8464 309° West  Level Estimated
Fri 05:42:00 PM 21.5856 -97.9352 309° West  Level Estimated
Fri 05:43:00 PM 21.6520 -98.0241 309° West  Level Estimated
Fri 05:44:00 PM 21.7184 -98.1131 309° West  Level Estimated
Fri 05:45:00 PM 21.7847 -98.2022 309° West  Level Estimated
Fri 05:46:00 PM 21.8510 -98.2914 309° West  Level Estimated
Fri 05:47:00 PM 21.9172 -98.3806 309° West  Level Estimated
Fri 05:48:00 PM 21.9834 -98.4700 309° West  Level Estimated
Fri 05:49:00 PM 22.0495 -98.5594 309° West  Level Estimated
Fri 05:50:00 PM 22.1156 -98.6489 309° West  Level Estimated
Fri 05:51:00 PM 22.1817 -98.7385 309° West  Level Estimated
Fri 05:52:00 PM 22.2477 -98.8281 308° West  Level Estimated
Fri 05:53:00 PM 22.3136 -98.9179 308° West  Level Estimated
Fri 05:54:00 PM 22.3795 -99.0077 308° West  Level Estimated
Fri 05:55:00 PM 22.4453 -99.0976 308° West  Level Estimated
Fri 05:56:00 PM 22.5111 -99.1877 308° West  Level Estimated
Fri 05:57:00 PM 22.5769 -99.2778 308° West  Level Estimated
Fri 05:58:00 PM 22.6425 -99.3679 308° West  Level Estimated
Fri 05:59:00 PM 22.7082 -99.4582 308° West  Level Estimated
Fri 06:00:00 PM 22.7738 -99.5486 308° West  Level Estimated
Fri 06:01:00 PM 22.8393 -99.6390 308° West  Level Estimated
Fri 06:02:00 PM 22.9048 -99.7295 308° West  Level Estimated
Fri 06:03:00 PM 22.9702 -99.8202 308° West  Level Estimated
Fri 06:04:00 PM 23.0356 -99.9109 308° West  Level Estimated
Fri 06:05:00 PM 23.1010 -100.0016 308° West  Level Estimated
Fri 06:06:00 PM 23.1662 -100.0925 308° West  Level Estimated
Fri 06:07:00 PM 23.2315 -100.1835 308° West  Level Estimated
Fri 06:08:00 PM 23.2966 -100.2746 308° West  Level Estimated
Fri 06:09:00 PM 23.3618 -100.3657 308° West  Level Estimated
Fri 06:10:00 PM 23.4268 -100.4569 308° West  Level Estimated
Fri 06:11:00 PM 23.4919 -100.5483 308° West  Level Estimated
Fri 06:12:00 PM 23.5568 -100.6397 308° West  Level Estimated
Fri 06:13:00 PM 23.6217 -100.7312 308° West  Level Estimated
Fri 06:14:00 PM 23.6866 -100.8228 308° West  Level Estimated
Fri 06:15:00 PM 23.7514 -100.9145 308° West  Level Estimated
Fri 06:16:00 PM 23.8161 -101.0063 308° West  Level Estimated
Fri 06:17:00 PM 23.8808 -101.0981 308° West  Level Estimated
Fri 06:18:00 PM 23.9455 -101.1901 308° West  Level Estimated
Fri 06:19:00 PM 24.0100 -101.2822 308° West  Level Estimated
Fri 06:20:00 PM 24.0746 -101.3743 308° West  Level Estimated
Fri 06:21:00 PM 24.1390 -101.4665 307° West  Level Estimated
Fri 06:22:00 PM 24.2035 -101.5589 307° West  Level Estimated
Fri 06:23:00 PM 24.2678 -101.6513 307° West  Level Estimated
Fri 06:24:00 PM 24.3321 -101.7438 307° West  Level Estimated
Fri 06:25:00 PM 24.3964 -101.8364 307° West  Level Estimated
Fri 06:26:00 PM 24.4606 -101.9291 307° West  Level Estimated
Fri 06:27:00 PM 24.5247 -102.0219 307° West  Level Estimated
Fri 06:28:00 PM 24.5888 -102.1148 307° West  Level Estimated
Fri 06:29:00 PM 24.6528 -102.2078 307° West  Level Estimated
Fri 06:30:00 PM 24.7168 -102.3009 307° West  Level Estimated
Fri 06:31:00 PM 24.7807 -102.3941 307° West  Level Estimated
Fri 06:32:00 PM 24.8445 -102.4874 307° West  Level Estimated
Fri 06:33:00 PM 24.9083 -102.5808 307° West  Level Estimated
Fri 06:34:00 PM 24.9721 -102.6742 307° West  Level Estimated
Fri 06:35:00 PM 25.0358 -102.7678 307° West  Level Estimated
Fri 06:36:00 PM 25.0994 -102.8615 307° West  Level Estimated
Fri 06:37:00 PM 25.1629 -102.9552 307° West  Level Estimated
Fri 06:38:00 PM 25.2264 -103.0491 307° West  Level Estimated
Fri 06:39:00 PM 25.2899 -103.1431 307° West  Level Estimated
Fri 06:40:00 PM 25.3533 -103.2371 307° West  Level Estimated
Fri 06:41:00 PM 25.4166 -103.3313 307° West  Level Estimated
Fri 06:42:00 PM 25.4798 -103.4255 307° West  Level Estimated
Fri 06:43:00 PM 25.5430 -103.5199 307° West  Level Estimated
Fri 06:44:00 PM 25.6062 -103.6143 307° West  Level Estimated
Fri 06:45:00 PM 25.6693 -103.7089 307° West  Level Estimated
Fri 06:46:00 PM 25.7323 -103.8035 306° West  Level Estimated
Fri 06:47:00 PM 25.7952 -103.8983 306° West  Level Estimated
Fri 06:48:00 PM 25.8581 -103.9931 306° West  Level Estimated
Fri 06:49:00 PM 25.9210 -104.0881 306° West  Level Estimated
Fri 06:50:00 PM 25.9837 -104.1832 306° West  Level Estimated
Fri 06:51:00 PM 26.0464 -104.2783 306° West  Level Estimated
Fri 06:52:00 PM 26.1091 -104.3736 306° West  Level Estimated
Fri 06:53:00 PM 26.1717 -104.4689 306° West  Level Estimated
Fri 06:54:00 PM 26.2342 -104.5644 306° West  Level Estimated
Fri 06:55:00 PM 26.2967 -104.6600 306° West  Level Estimated
Fri 06:56:00 PM 26.3591 -104.7556 306° West  Level Estimated
Fri 06:57:00 PM 26.4214 -104.8514 306° West  Level Estimated
Fri 06:58:00 PM 26.4837 -104.9473 306° West  Level Estimated
Fri 06:59:00 PM 26.5459 -105.0433 306° West  Level Estimated
Fri 07:00:00 PM 26.6080 -105.1394 306° West  Level Estimated
Fri 07:01:00 PM 26.6701 -105.2355 306° West  Level Estimated
Fri 07:02:00 PM 26.7321 -105.3318 306° West  Level Estimated
Fri 07:03:00 PM 26.7941 -105.4282 306° West  Level Estimated
Fri 07:03:47 PM 27.3980 -106.4040 306° West 350 403 36,000  Level FlightAware ADS-B
Fri 07:04:00 PM 26.8559 -105.5247 306° West  Level Estimated
Fri 07:04:32 PM 27.4370 -106.4660 305° West 350 403 36,000  Level FlightAware ADS-B
Fri 07:05:12 PM 27.4770 -106.5320 304° West 351 404 36,000  Level FlightAware ADS-B
Fri 07:05:52 PM 27.5080 -106.5840 304° West 351 404 36,000  Level FlightAware ADS-B
Fri 07:06:32 PM 27.5390 -106.6350 304° West 351 404 36,000  Level FlightAware ADS-B
Fri 07:07:22 PM 27.5780 -106.7000 304° West 351 404 36,000  Level FlightAware ADS-B
Fri 07:08:02 PM 27.6080 -106.7520 303° West 351 404 36,000  Level FlightAware ADS-B
Fri 07:08:42 PM 27.6390 -106.8030 304° West 351 404 36,000  Level FlightAware ADS-B
Fri 07:09:22 PM 27.6700 -106.8550 304° West 351 404 36,000  Level FlightAware ADS-B
Fri 07:10:02 PM 27.7010 -106.9070 304° West 351 404 36,000  Level FlightAware ADS-B
Fri 07:10:52 PM 27.7400 -106.9710 305° West 351 404 36,000  Level FlightAware ADS-B
Fri 07:11:32 PM 27.7700 -107.0230 303° West 351 404 36,000  Level FlightAware ADS-B
Fri 07:12:12 PM 27.8010 -107.0750 304° West 351 404 36,000  Level FlightAware ADS-B
Fri 07:12:52 PM 27.8320 -107.1260 305° West 351 404 36,000  Level FlightAware ADS-B
Fri 07:13:32 PM 27.8630 -107.1780 304° West 351 404 36,000  Level FlightAware ADS-B
Fri 07:14:12 PM 27.8940 -107.2300 304° West 351 404 36,000  Level FlightAware ADS-B
Fri 07:16:00 PM 27.9949 -107.4135 302° West  Level FlightAware Approximate
Fri 07:17:00 PM 28.0508 -107.5155 302° West  Level FlightAware Approximate
Fri 07:18:00 PM 28.1066 -107.6177 302° West  Level FlightAware Approximate
Fri 07:19:00 PM 28.1624 -107.7200 302° West  Level FlightAware Approximate
Fri 07:20:00 PM 28.2181 -107.8224 302° West  Level FlightAware Approximate
Fri 07:21:00 PM 28.2737 -107.9249 302° West  Level FlightAware Approximate
Fri 07:22:00 PM 28.3293 -108.0275 302° West  Level FlightAware Approximate
Fri 07:23:00 PM 28.3847 -108.1302 302° West  Level FlightAware Approximate
Fri 07:24:00 PM 28.4401 -108.2330 302° West  Level FlightAware Approximate
Fri 07:25:00 PM 28.4954 -108.3359 301° West  Level FlightAware Approximate
Fri 07:26:00 PM 28.5507 -108.4389 301° West  Level FlightAware Approximate
Fri 07:27:00 PM 28.6080 -108.5412 304° West  Level FlightAware Approximate
Fri 07:28:00 PM 28.6676 -108.6412 304° West  Level FlightAware Approximate
Fri 07:29:00 PM 28.7271 -108.7412 304° West  Level FlightAware Approximate
Fri 07:30:00 PM 28.7866 -108.8414 304° West  Level FlightAware Approximate
Fri 07:31:00 PM 28.8460 -108.9417 304° West  Level FlightAware Approximate
Fri 07:32:00 PM 28.9053 -109.0421 304° West  Level FlightAware Approximate
Fri 07:33:00 PM 28.9645 -109.1425 304° West  Level FlightAware Approximate
Fri 07:34:00 PM 29.0237 -109.2432 304° West  Level FlightAware Approximate
Fri 07:35:00 PM 29.0828 -109.3439 304° West  Level FlightAware Approximate
Fri 07:36:00 PM 29.1418 -109.4447 304° West  Level FlightAware Approximate
Fri 07:37:00 PM 29.2007 -109.5457 304° West  Level FlightAware Approximate
Fri 07:38:00 PM 29.2596 -109.6468 304° West  Level FlightAware Approximate
Fri 07:39:00 PM 29.3184 -109.7480 304° West  Level FlightAware Approximate
Fri 07:40:00 PM 29.3771 -109.8493 304° West  Level FlightAware Approximate
Fri 07:41:00 PM 29.4357 -109.9507 304° West  Level FlightAware Approximate
Fri 07:42:00 PM 29.4942 -110.0523 303° West  Level FlightAware Approximate
Fri 07:43:00 PM 29.5526 -110.1541 303° West  Level FlightAware Approximate
Fri 07:44:00 PM 29.6109 -110.2559 303° West  Level FlightAware Approximate
Fri 07:45:00 PM 29.6692 -110.3579 303° West  Level FlightAware Approximate
Fri 07:46:00 PM 29.7273 -110.4600 303° West  Level FlightAware Approximate
Fri 07:47:00 PM 29.7854 -110.5622 303° West  Level FlightAware Approximate
Fri 07:48:00 PM 29.8434 -110.6645 303° West  Level FlightAware Approximate
Fri 07:49:00 PM 29.9013 -110.7669 303° West  Level FlightAware Approximate
Fri 07:49:52 PM 29.9190 -110.6480 303° West 363 418 36,000  Level FlightAware ADS-B
Fri 07:50:00 PM 29.9592 -110.8695 303° West  Level FlightAware Approximate
Fri 07:50:37 PM 29.9600 -110.7210 303° West 363 418 36,000  Level FlightAware ADS-B
Fri 07:51:17 PM 29.9970 -110.7870 303° West 362 417 36,000  Level FlightAware ADS-B
Fri 07:51:57 PM 30.0320 -110.8490 303° West 363 418 36,000  Level FlightAware ADS-B
Fri 07:52:42 PM 30.0740 -110.9250 303° West 363 418 36,000  Level FlightAware ADS-B
Fri 07:53:22 PM 30.1100 -110.9880 303° West 364 419 36,000  Level FlightAware ADS-B
Fri 07:54:07 PM 30.1520 -111.0640 303° West 364 419 36,000  Level FlightAware ADS-B
Fri 07:54:47 PM 30.1890 -111.1290 303° West 364 419 36,000  Level FlightAware ADS-B
Fri 07:55:32 PM 30.2290 -111.2020 302° West 364 419 36,000  Level FlightAware ADS-B
Fri 07:55:57 PM 30.2520 -111.2430 303° West 364 419 36,000  Level FlightAware ADS-B
Fri 07:56:42 PM 30.2930 -111.3150 303° West 365 420 36,000  Level FlightAware ADS-B
Fri 07:57:22 PM 30.3290 -111.3810 302° West 365 420 36,000  Level FlightAware ADS-B
Fri 07:58:02 PM 30.3650 -111.4470 302° West 366 421 36,000  Level FlightAware ADS-B
Fri 07:58:47 PM 30.4080 -111.5230 303° West 368 423 36,000  Level FlightAware ADS-B
Fri 07:59:27 PM 30.4440 -111.5900 302° West 370 426 36,000  Level FlightAware ADS-B
Fri 08:00:32 PM 30.5000 -111.6910 303° West 370 426 36,000  Level FlightAware ADS-B
Fri 08:01:22 PM 30.5380 -111.7630 302° West 370 426 36,000  Level FlightAware ADS-B
Fri 08:02:17 PM 30.6000 -111.8730 303° West 375 432 36,000  Level FlightAware ADS-B
Fri 08:02:57 PM 30.6380 -111.9430 302° West 377 434 36,000  Level FlightAware ADS-B
Fri 08:03:42 PM 30.6800 -112.0210 302° West 378 435 36,000  Level FlightAware ADS-B
Fri 08:04:22 PM 30.7160 -112.0850 303° West 379 436 36,000  Level FlightAware ADS-B
Fri 08:05:07 PM 30.7560 -112.1590 302° West 380 437 36,000  Level FlightAware ADS-B
Fri 08:05:42 PM 30.7890 -112.2210 302° West 381 438 36,000  Level FlightAware ADS-B
Fri 08:06:42 PM 30.8450 -112.3240 302° West 376 433 36,000  Level FlightAware ADS-B
Fri 08:08:17 PM 30.9350 -112.4920 302° West 378 435 36,000  Level FlightAware ADS-B
Fri 08:08:57 PM 30.9720 -112.5590 303° West 380 437 36,000  Level FlightAware ADS-B
Fri 08:10:02 PM 31.0350 -112.6760 302° West 380 437 36,000  Level FlightAware ADS-B
Fri 08:10:57 PM 31.0870 -112.7740 302° West 381 438 36,000  Level FlightAware ADS-B
Fri 08:11:37 PM 31.1240 -112.8440 302° West 381 438 36,000  Level FlightAware ADS-B
Fri 08:12:17 PM 31.1610 -112.9130 302° West 381 438 36,000  Level FlightAware ADS-B
Fri 08:13:02 PM 31.2050 -112.9950 302° West 381 438 36,000  Level FlightAware ADS-B
Fri 08:13:42 PM 31.2400 -113.0600 302° West 382 440 36,000  Level FlightAware ADS-B
Fri 08:14:17 PM 31.2720 -113.1200 302° West 383 441 36,000  Level FlightAware ADS-B
Fri 08:15:07 PM 31.3200 -113.2120 301° West 384 442 36,000  Level FlightAware ADS-B
Fri 08:15:42 PM 31.3530 -113.2740 302° West 389 448 36,000  Level FlightAware ADS-B
Fri 08:16:32 PM 31.3920 -113.3490 301° West 389 448 36,000  Level FlightAware ADS-B
Fri 08:17:12 PM 31.4400 -113.4300 305° West 386 444 36,000  Level FlightAware ADS-B
Fri 08:17:57 PM 31.4790 -113.5030 302° West 386 444 36,000  Level FlightAware ADS-B
Fri 08:18:32 PM 31.5150 -113.5640 305° West 391 450 36,000  Level FlightAware ADS-B
Fri 08:19:12 PM 31.5480 -113.6240 303° West 391 450 36,000  Level FlightAware ADS-B
Fri 08:20:02 PM 31.5900 -113.7000 303° West 391 450 36,000  Level FlightAware ADS-B
Fri 08:20:42 PM 31.6430 -113.7950 303° West 391 450 36,000  Level FlightAware ADS-B
Fri 08:21:22 PM 31.6810 -113.8620 304° West 391 450 36,000  Level FlightAware ADS-B
Fri 08:22:07 PM 31.7190 -113.9310 303° West 391 450 36,000  Level FlightAware ADS-B
Fri 08:23:02 PM 31.7770 -114.0350 303° West 390 449 36,000  Level FlightAware ADS-B
Fri 08:23:42 PM 31.8100 -114.0960 302° West 390 449 36,000  Level FlightAware ADS-B
Fri 08:24:22 PM 31.8440 -114.1560 304° West 390 449 36,000  Level FlightAware ADS-B
Fri 08:25:02 PM 31.8770 -114.2170 303° West 390 449 36,000  Level FlightAware ADS-B
Fri 08:25:52 PM 31.9190 -114.2920 303° West 390 449 36,000  Level FlightAware ADS-B
Fri 08:26:32 PM 31.9520 -114.3530 303° West 390 449 36,000  Level FlightAware ADS-B
Fri 08:27:12 PM 31.9860 -114.4140 303° West 390 449 36,000  Level FlightAware ADS-B
Fri 08:27:52 PM 32.0190 -114.4740 303° West 390 449 36,000  Level FlightAware ADS-B
Fri 08:28:32 PM 32.0520 -114.5350 303° West 390 449 36,000  Level FlightAware ADS-B
Fri 08:29:22 PM 32.0940 -114.6110 303° West 390 449 36,000  Level FlightAware ADS-B
Fri 08:30:02 PM 32.1280 -114.6720 303° West 390 449 36,000  Level FlightAware ADS-B
Fri 08:30:42 PM 32.1610 -114.7330 303° West 390 449 36,000  Level FlightAware ADS-B
Fri 08:31:22 PM 32.1940 -114.7930 303° West 390 449 36,000  Level FlightAware ADS-B
Fri 08:32:02 PM 32.2280 -114.8540 303° West 390 449 36,000  Level FlightAware ADS-B
Fri 08:32:24 PM 32.3306 -115.0533 300° West 392 451 36,000  Level Los Angeles Center
Fri 08:33:26 PM 32.3892 -115.1614 303° West 390 449 36,000  Level Los Angeles Center
Fri 08:34:00 PM 32.3330 -115.0671 300° West  Level FlightAware Approximate
Fri 08:34:28 PM 32.4550 -115.2872 302° West 390 449 36,000  Level Los Angeles Center
Fri 08:35:00 PM 32.3863 -115.1757 300° West  Level FlightAware Approximate
Fri 08:35:30 PM 32.5128 -115.3972 302° West 392 451 36,000  Level Los Angeles Center
Fri 08:36:00 PM 32.4395 -115.2844 300° West  Level FlightAware Approximate
Fri 08:36:32 PM 32.5717 -115.5053 303° West 391 450 36,000  Level Los Angeles Center
Fri 08:37:00 PM 32.4925 -115.3932 300° West  Level FlightAware Approximate
Fri 08:42:07 PM 32.9040 -116.1310 303° West 390 449 33,600  Level FlightAware ADS-B
Fri 08:42:47 PM 32.9380 -116.1980 301° West 392 451 33,300 -2,541 Descending FlightAware ADS-B
Fri 08:43:32 PM 32.9840 -116.2840 303° West 391 450 30,000 -3,200 Descending FlightAware ADS-B
Fri 08:44:17 PM 33.0210 -116.3550 302° West 385 443 28,500 -2,259 Descending FlightAware ADS-B
Fri 08:44:57 PM 33.0660 -116.4410 302° West 376 433 26,800 -2,329 Descending FlightAware ADS-B
Fri 08:45:42 PM 33.1060 -116.5190 301° West 367 422 25,200 -1,976 Descending FlightAware ADS-B
Fri 08:46:22 PM 33.1370 -116.5880 298° West 360 414 24,000 -900 Descending FlightAware ADS-B
Fri 08:47:02 PM 33.1500 -116.6670 281° West 360 414 24,000 -1,200 Level FlightAware ADS-B
Fri 08:47:47 PM 33.1620 -116.7570 279° West 360 414 22,300 -2,541 Descending FlightAware ADS-B
Fri 08:48:27 PM 33.1710 -116.8350 278° West 370 426 20,400 -2,400 Descending FlightAware ADS-B
Fri 08:49:07 PM 33.1800 -116.9090 278° West 359 413 19,100 -1,950 Descending FlightAware ADS-B
Fri 08:49:47 PM 33.1890 -116.9860 278° West 350 403 17,800 -1,800 Descending FlightAware ADS-B
Fri 08:50:47 PM 33.2010 -117.0830 278° West 338 389 16,100 -2,000 Descending FlightAware ADS-B
Fri 08:51:32 PM 33.2130 -117.1860 278° West 329 379 14,300 -2,188 Descending FlightAware ADS-B
Fri 08:52:12 PM 33.2220 -117.2560 279° West 325 374 13,000 -1,694 Descending FlightAware ADS-B
Fri 08:52:57 PM 33.2310 -117.3340 278° West 318 366 11,900 -776 Descending FlightAware ADS-B
Fri 08:53:37 PM 33.2390 -117.4000 278° West 317 365 11,900  Level FlightAware ADS-B
Fri 08:54:17 PM 33.2440 -117.4740 275° West 321 369 11,900 -353 Level FlightAware ADS-B
Fri 08:55:02 PM 33.2580 -117.5530 282° West 314 361 11,400 -847 Descending FlightAware ADS-B
Fri 08:55:42 PM 33.2880 -117.6110 302° West 313 360 10,700 -975 Descending FlightAware ADS-B
Fri 08:56:22 PM 33.3190 -117.6680 303° West 310 357 10,100 -686 Descending FlightAware ADS-B
Fri 08:56:52 PM 33.3420 -117.7120 302° West 303 349 9,900 -500 Descending FlightAware ADS-B
Fri 08:57:22 PM 33.3640 -117.7520 303° West 278 320 9,600 -982 Descending FlightAware ADS-B
Fri 08:57:47 PM 33.3810 -117.7840 302° West 277 319 9,000 -1,527 Descending FlightAware ADS-B
Fri 08:58:17 PM 33.4020 -117.8230 303° West 278 320 8,200 -1,467 Descending FlightAware ADS-B
Fri 08:58:32 PM 33.4120 -117.8430 301° West 276 318 7,900 -450 Descending FlightAware ADS-B
Fri 08:58:57 PM 33.4290 -117.8740 303° West 274 315 7,900  Level FlightAware ADS-B
Fri 08:59:27 PM 33.4560 -117.9040 317° Northwest 265 305 7,900  Level FlightAware ADS-B
Fri 08:59:42 PM 33.4750 -117.9130 338° Northwest 267 307 7,900  Level FlightAware ADS-B
Fri 09:00:07 PM 33.5020 -117.9260 338° Northwest 267 307 7,900  Level FlightAware ADS-B
Fri 09:00:37 PM 33.5370 -117.9420 339° North 267 307 7,900  Level FlightAware ADS-B
Fri 09:01:02 PM 33.5670 -117.9560 339° North 269 310 7,900  Level FlightAware ADS-B
Fri 09:01:17 PM 33.5840 -117.9630 341° North 269 310 7,900  Level FlightAware ADS-B
Fri 09:01:42 PM 33.6140 -117.9770 339° North 268 308 7,900  Level FlightAware ADS-B
Fri 09:02:12 PM 33.6490 -117.9930 339° North 270 311 7,900 -133 Level FlightAware ADS-B
Fri 09:02:27 PM 33.6650 -118.0010 337° Northwest 270 311 7,800 -1,350 Descending FlightAware ADS-B
Fri 09:02:52 PM 33.6960 -118.0150 339° North 273 314 7,000 -982 Descending FlightAware ADS-B
Fri 09:03:22 PM 33.7290 -118.0300 339° North 252 290 6,900 -100 Descending FlightAware ADS-B
Fri 09:03:52 PM 33.7600 -118.0440 339° North 226 260 6,900  Level FlightAware ADS-B
Fri 09:04:17 PM 33.7820 -118.0530 341° North 202 232 6,900  Level FlightAware ADS-B
Fri 09:04:47 PM 33.8090 -118.0510 North 201 231 6,900  Level FlightAware ADS-B
Fri 09:05:17 PM 33.8390 -118.0490 North 196 226 6,900  Level FlightAware ADS-B
Fri 09:05:42 PM 33.8610 -118.0470 North 195 224 6,900  Level FlightAware ADS-B
Fri 09:06:02 PM 33.8780 -118.0460 North 197 227 6,900  Level FlightAware ADS-B
Fri 09:06:32 PM 33.9060 -118.0440 North 189 217 6,900  Level FlightAware ADS-B
Fri 09:07:02 PM 33.9310 -118.0570 337° Northwest 191 220 6,900  Level FlightAware ADS-B
Fri 09:07:27 PM 33.9490 -118.0690 331° Northwest 174 200 6,900  Level FlightAware ADS-B
Fri 09:07:57 PM 33.9710 -118.0830 332° Northwest 176 203 6,900  Level FlightAware ADS-B
Fri 09:08:12 PM 33.9790 -118.0920 317° Northwest 176 203 6,900 -480 Level FlightAware ADS-B
Fri 09:08:22 PM 33.9820 -118.1000 294° West 176 203 6,700 -1,680 Descending FlightAware ADS-B
Fri 09:08:37 PM 33.9860 -118.1170 286° West 184 212 6,200 -1,333 Descending FlightAware ADS-B
Fri 09:09:07 PM 33.9790 -118.1440 253° West 178 205 5,700 -1,200 Descending FlightAware ADS-B
Fri 09:09:32 PM 33.9720 -118.1660 249° West 170 196 5,100 -1,500 Descending FlightAware ADS-B
Fri 09:09:47 PM 33.9710 -118.1800 265° West 165 190 4,700 -1,200 Descending FlightAware ADS-B
Fri 09:10:12 PM 33.9720 -118.2000 273° West 154 177 4,300 -1,200 Descending FlightAware ADS-B
Fri 09:10:42 PM 33.9700 -118.2250 264° West 149 171 3,600 -1,500 Descending FlightAware ADS-B
Fri 09:11:12 PM 33.9670 -118.2520 262° West 147 169 2,800 -1,527 Descending FlightAware ADS-B
Fri 09:11:37 PM 33.9650 -118.2710 263° West 144 166 2,200 -1,091 Descending FlightAware ADS-B
Fri 09:12:07 PM 33.9630 -118.2950 264° West 143 165 1,800 -686 Descending FlightAware ADS-B
Fri 09:12:47 PM 33.9610 -118.3180 264° West 139 160 1,400 -646 Descending FlightAware ADS-B
Fri 09:13:12 PM 33.9590 -118.3360 262° West 133 153 1,100 -764 Descending FlightAware ADS-B
Fri 09:13:42 PM 33.9560 -118.3610 262° West 131 151 700 -700 Descending FlightAware ADS-B
Fri 09:14:12 PM 33.9540 -118.3850 264° West 139 160 400 -655 Descending FlightAware ADS-B
Fri 09:14:37 PM 33.9520 -118.4010 261° West 144 166 100 -360 Descending FlightAware ADS-B
Fri 09:15:02 PM 33.9500 -118.4190 262° West 144 166 100  Level FlightAware ADS-B

Login

Don't have an account? Register now (free) for customized features, flight alerts, and more!